Archival Weather

Agadez

Agadez, Niger (DRZA)

Report from: Friday, February 23, 2024 10:00 AM WAT
Current time: Wednesday, April 24, 2024 7:10 PM WAT

Current weather – Weather history – Daily summaries
Weather forecast

Temperature27.0°C (80.6°F)
Heat index25.8°C (78.5°F)
Dew point-9.0°C (15.8°F)
Winds 21 kts (10.8 m/s, 24.2 mph) East (100°)
Clouds Sky clear
Altimeter30.00 in.Hg (1016 mB)
Relative humidity9 %
Density altitude1,351 ft. (412 m)
Remarks Ceiling and visibility OK
Flight conditions Visual Meteorological Conditions
Raw dataDRZA 230900Z 10021KT CAVOK 27/M09 Q1016
An error has occurred. This application may no longer respond until reloaded. Reload 🗙